This is the latest recevied weather packets stored in our database for station/object Kirchdorf. If no packets are shown the sender has not sent any weather packets the latest 10 day(s).
| Time | Temp. | Humidity | Pressure | Rain* | Wind** | Luminosity | Snow |
|---|---|---|---|---|---|---|---|
| 1788489130 | 17.78° C | 76% | 1021.6 hPa | 0 mm | - | - | - |
| 1788487330 | 16.67° C | 81% | 1021.6 hPa | 0 mm | - | - | - |
| 1788485530 | 16.67° C | 82% | 1021.9 hPa | 0 mm | - | - | - |
| 1788483730 | 15.56° C | 88% | 1022.1 hPa | 0 mm | - | - | - |
| 1788481931 | 16.11° C | 85% | 1022.1 hPa | 0 mm | - | - | - |
| 1788480131 | 17.22° C | 81% | 1022.2 hPa | 0 mm | - | - | - |
| 1788478331 | 17.78° C | 79% | 1022.4 hPa | 0 mm | - | - | - |
| 1788476531 | 17.78° C | 79% | 1022.4 hPa | 0 mm | - | - | - |
| 1788474731 | 17.78° C | 79% | 1022.5 hPa | 0 mm | - | - | - |
| 1788471131 | 17.78° C | 78% | 1022.7 hPa | 0 mm | - | - | - |
| 1788469331 | 17.22° C | 80% | 1022.5 hPa | 0 mm | - | - | - |
| 1788467531 | 17.22° C | 83% | 1022.7 hPa | 0 mm | - | - | - |
| 1788465730 | 16.67° C | 78% | 1022.7 hPa | 0 mm | - | - | - |
| 1788463931 | 18.33° C | 71% | 1022.2 hPa | 0 mm | - | - | - |
| 1788462131 | 18.89° C | 71% | 1021.9 hPa | 0 mm | - | - | - |
| 1788460330 | 19.44° C | 71% | 1021.7 hPa | 0 mm | - | - | - |
| 1788458531 | 20.56° C | 66% | 1021.5 hPa | 0 mm | - | - | - |
| 1788456731 | 22.22° C | 56% | 1021.3 hPa | 0 mm | - | - | - |
| 1788454941 | 22.78° C | 55% | 1021.2 hPa | 0 mm | - | - | - |
| 1788453130 | 23.33° C | 54% | 1021.2 hPa | 0 mm | - | - | - |
| 1788451331 | 24.44° C | 52% | 1021.5 hPa | 0 mm | - | - | - |
| 1788449530 | 24.44° C | 53% | 1021.5 hPa | 0 mm | - | - | - |
| 1788447730 | 24.44° C | 52% | 1021.4 hPa | 0 mm | - | - | - |
| 1788445930 | 25° C | 54% | 1021.5 hPa | 0 mm | - | - | - |
| 1788444130 | 25° C | 54% | 1021.6 hPa | 0 mm | - | - | - |
* Rain since midnight (hover to see other rain measurements)
** Current wind speed in m/s (hover to see current wind gust speed)